Time;durP1;ratioP1;P1;durP2;ratioP2;P2;SDS_P1;SDS_P2;PMS_P1;PMS_P2;Temp;Humidity;BMP_temperature;BMP_pressure;BME280_temperature;BME280_humidity;BME280_pressure;Samples;Min_cycle;Max_cycle;Signal;HPM_P1;HPM_P2
2022/09/22 00:01:34;;;;;;;0.85;0.60;;;;;;;14.18;100.00;100085.44;5094733;28;20050;-70
2022/09/22 00:04:05;;;;;;;1.83;0.55;;;;;;;14.15;100.00;100161.44;5094390;28;20118;-69
2022/09/22 00:06:50;;;;;;;0.57;0.50;;;;;;;14.22;100.00;100165.44;5094198;28;20114;-70
2022/09/22 00:09:18;;;;;;;0.80;0.60;;;;;;;14.14;100.00;100136.78;5075574;28;20032;-71
2022/09/22 00:11:46;;;;;;;0.95;0.55;;;;;;;14.22;100.00;100168.00;5093947;28;20043;-71
2022/09/22 00:14:25;;;;;;;0.77;0.68;;;;;;;14.06;100.00;100157.56;5093996;28;20404;-71
2022/09/22 00:16:57;;;;;;;1.30;0.70;;;;;;;13.98;100.00;100151.91;5093974;28;20028;-70
2022/09/22 00:19:31;;;;;;;1.25;0.70;;;;;;;13.83;100.00;100153.31;5094299;28;20036;-70
2022/09/22 00:21:57;;;;;;;1.23;0.60;;;;;;;13.86;100.00;100137.03;5093981;28;20122;-70
2022/09/22 00:24:23;;;;;;;0.90;0.70;;;;;;;13.98;100.00;100110.16;5093693;28;20786;-69
2022/09/22 00:26:50;;;;;;;0.90;0.70;;;;;;;14.16;100.00;100145.22;5094307;28;20115;-70
2022/09/22 00:29:16;;;;;;;1.20;0.70;;;;;;;14.01;100.00;100150.94;5075302;28;20598;-71
2022/09/22 00:31:43;;;;;;;0.73;0.60;;;;;;;14.10;100.00;100153.13;5094143;28;20032;-70
2022/09/22 00:34:14;;;;;;;0.68;0.60;;;;;;;13.49;100.00;100086.50;5093819;28;20128;-69
2022/09/22 00:36:39;;;;;;;1.67;0.80;;;;;;;13.78;100.00;100113.50;5093912;28;20036;-69
2022/09/22 00:39:04;;;;;;;1.02;0.70;;;;;;;13.93;100.00;100131.63;5075463;28;20134;-69
2022/09/22 00:41:34;;;;;;;2.30;0.80;;;;;;;14.27;100.00;100151.56;5093536;28;20024;-70
2022/09/22 00:44:21;;;;;;;1.65;0.80;;;;;;;13.84;100.00;100149.03;5093617;28;20027;-71
2022/09/22 00:46:52;;;;;;;0.95;0.80;;;;;;;14.15;100.00;100129.03;5093755;28;20071;-70
2022/09/22 00:49:21;;;;;;;0.63;0.47;;;;;;;13.91;100.00;100138.53;5093571;28;20055;-70
2022/09/22 00:51:47;;;;;;;1.27;0.68;;;;;;;13.91;100.00;100123.19;5075497;28;20040;-70
2022/09/22 00:54:19;;;;;;;1.25;0.80;;;;;;;13.96;100.00;100115.34;5075644;28;20032;-69
2022/09/22 00:57:00;;;;;;;0.82;0.70;;;;;;;13.83;100.00;100114.97;5092630;28;20055;-69
2022/09/22 00:59:25;;;;;;;1.65;0.55;;;;;;;13.19;100.00;100031.50;5093352;28;20107;-69
2022/09/22 01:01:51;;;;;;;0.80;0.70;;;;;;;13.57;100.00;100096.44;5093198;28;20145;-72
2022/09/22 01:04:17;;;;;;;0.95;0.80;;;;;;;13.53;100.00;100070.16;5092939;28;20028;-70
2022/09/22 01:06:43;;;;;;;1.58;0.85;;;;;;;13.89;100.00;100130.09;5093348;28;20035;-70
2022/09/22 01:09:09;;;;;;;1.08;0.80;;;;;;;13.55;100.00;100078.59;5092763;28;20039;-70
2022/09/22 01:11:37;;;;;;;0.77;0.70;;;;;;;13.91;100.00;100128.28;5092872;28;20063;-69
2022/09/22 01:14:16;;;;;;;0.68;0.55;;;;;;;13.67;100.00;100078.13;5092759;28;20035;-69
2022/09/22 01:16:51;;;;;;;0.95;0.70;;;;;;;13.96;100.00;100124.72;5074688;28;20689;-69
2022/09/22 01:20:01;;;;;;;0.85;0.70;;;;;;;13.58;100.00;100070.00;5092707;28;20028;-70
2022/09/22 01:22:39;;;;;;;0.80;0.70;;;;;;;13.91;100.00;100128.28;5093069;28;20490;-69
2022/09/22 01:25:17;;;;;;;0.70;0.70;;;;;;;14.05;100.00;100126.91;5074436;28;20027;-69
2022/09/22 01:27:54;;;;;;;0.90;0.75;;;;;;;13.95;100.00;100131.56;5074712;28;20032;-69
2022/09/22 01:30:26;;;;;;;1.27;0.90;;;;;;;13.92;100.00;100108.69;5074884;28;20516;-71
2022/09/22 01:33:28;;;;;;;1.13;0.85;;;;;;;14.07;100.00;100123.41;5106378;28;20023;-70
2022/09/22 01:36:21;;;;;;;1.80;0.90;;;;;;;13.83;100.00;100084.31;5062618;28;20138;-69
2022/09/22 01:39:12;;;;;;;1.40;0.82;;;;;;;14.06;100.00;100126.03;5111856;28;20462;-70
2022/09/22 01:41:44;;;;;;;1.10;0.80;;;;;;;13.56;100.00;100030.91;5108817;28;20043;-70
2022/09/22 01:44:51;;;;;;;1.15;0.80;;;;;;;14.07;100.00;100123.41;5110048;28;20062;-68
2022/09/22 01:47:26;;;;;;;1.20;0.90;;;;;;;14.02;100.00;100121.94;5111834;28;20040;-69
2022/09/22 01:49:56;;;;;;;0.98;0.77;;;;;;;13.90;100.00;100102.81;5112863;28;20153;-73
2022/09/22 01:52:29;;;;;;;1.27;0.80;;;;;;;13.48;100.00;100041.44;5094452;28;20023;-70
2022/09/22 01:55:04;;;;;;;1.58;0.90;;;;;;;13.94;100.00;100097.47;5103587;28;20034;-70
2022/09/22 01:57:56;;;;;;;1.83;1.00;;;;;;;13.74;100.00;100082.13;5074068;28;20023;-69
2022/09/22 02:00:22;;;;;;;;;;;;;;;13.97;100.00;100119.56;5092827;28;20028;-70
2022/09/22 02:03:10;;;;;;;1.20;1.00;;;;;;;13.83;100.00;100068.13;5092262;28;19918;-70
2022/09/22 02:05:42;;;;;;;2.33;1.10;;;;;;;13.47;100.00;100023.63;5073729;28;20040;-70
2022/09/22 02:08:18;;;;;;;5.97;1.23;;;;;;;13.62;100.00;100061.34;5091032;28;20405;-69
2022/09/22 02:10:47;;;;;;;2.38;1.85;;;;;;;13.97;100.00;100095.69;5073596;28;20020;-69
2022/09/22 02:13:13;;;;;;;1.65;1.00;;;;;;;14.00;100.00;100106.66;5073574;28;20502;-69
2022/09/22 02:18:40;;;;;;;1.38;1.00;;;;;;;13.83;100.00;100099.66;5112193;28;20181;-75
2022/09/22 02:21:06;;;;;;;1.20;1.10;;;;;;;13.86;100.00;100114.03;5094019;28;20079;-70
2022/09/22 02:23:32;;;;;;;1.20;1.10;;;;;;;13.77;100.00;100105.00;5093482;28;20084;-70
2022/09/22 02:26:02;;;;;;;1.00;0.90;;;;;;;13.24;100.00;100034.72;5112380;28;20028;-70
2022/09/22 02:28:31;;;;;;;1.95;1.30;;;;;;;13.02;100.00;100005.75;5111235;28;20039;-69
2022/09/22 02:31:00;;;;;;;1.60;1.30;;;;;;;13.56;100.00;100107.53;5111468;28;20027;-69
2022/09/22 02:33:26;;;;;;;1.63;1.40;;;;;;;13.20;100.00;100051.03;5111517;28;20488;-70
2022/09/22 02:36:03;;;;;;;1.35;1.10;;;;;;;13.57;100.00;100111.75;5111552;28;20062;-69
2022/09/22 02:38:36;;;;;;;2.85;1.40;;;;;;;13.47;100.00;100106.16;5093490;28;20538;-69
2022/09/22 02:41:10;;;;;;;2.33;1.30;;;;;;;13.39;100.00;100104.81;5111461;28;20081;-70
2022/09/22 02:44:05;;;;;;;1.48;1.27;;;;;;;13.44;100.00;100106.28;5111085;28;20027;-70
2022/09/22 02:46:41;;;;;;;1.77;1.40;;;;;;;13.00;100.00;100033.88;5090967;28;20038;-69
2022/09/22 02:49:14;;;;;;;1.48;1.38;;;;;;;13.19;100.00;100057.03;5111680;28;20465;-69
2022/09/22 02:51:41;;;;;;;1.85;1.38;;;;;;;13.49;100.00;100112.03;5111656;28;20032;-69
2022/09/22 02:54:07;;;;;;;1.55;1.40;;;;;;;13.43;100.00;100127.59;5093244;28;20399;-70
2022/09/22 02:56:32;;;;;;;3.08;1.42;;;;;;;12.71;100.00;100010.31;5111272;28;20030;-69
2022/09/22 02:58:58;;;;;;;1.70;1.30;;;;;;;13.30;100.00;100121.28;5093186;28;20035;-70
2022/09/22 03:01:23;;;;;;;2.45;1.50;;;;;;;13.47;100.00;100113.81;5093288;28;20027;-68
2022/09/22 03:03:49;;;;;;;1.58;1.20;;;;;;;13.57;100.00;100127.06;5092556;28;20028;-69
2022/09/22 03:06:14;;;;;;;1.58;1.40;;;;;;;12.92;100.00;100055.44;5111222;28;20122;-69
2022/09/22 03:08:40;;;;;;;1.75;1.50;;;;;;;13.27;100.00;100102.72;5092995;28;20024;-70
2022/09/22 03:11:05;;;;;;;2.20;1.33;;;;;;;13.14;100.00;100104.03;5111286;28;20027;-69
2022/09/22 03:13:31;;;;;;;1.80;1.40;;;;;;;13.50;100.00;100131.59;5111124;28;20036;-69
2022/09/22 03:15:56;;;;;;;1.83;1.23;;;;;;;12.68;100.00;100025.72;5099277;28;20133;-69
2022/09/22 03:18:22;;;;;;;2.13;1.40;;;;;;;12.95;100.00;100065.56;5072233;28;20035;-70
2022/09/22 03:20:47;;;;;;;1.65;1.45;;;;;;;13.23;100.00;100139.44;5072383;28;20492;-70
2022/09/22 03:23:13;;;;;;;1.92;1.20;;;;;;;13.20;100.00;100099.53;5072836;28;20024;-70
2022/09/22 03:25:38;;;;;;;2.05;1.60;;;;;;;13.29;100.00;100147.69;5090202;28;20089;-70
2022/09/22 03:28:04;;;;;;;3.35;1.10;;;;;;;13.22;100.00;100087.53;5090864;28;20031;-70
2022/09/22 03:30:29;;;;;;;2.75;1.30;;;;;;;13.33;100.00;100128.00;5090798;28;20040;-72
2022/09/22 03:32:55;;;;;;;1.55;1.20;;;;;;;13.61;100.00;100146.50;5090575;28;20024;-72
2022/09/22 03:35:20;;;;;;;2.20;1.10;;;;;;;12.77;100.00;100051.75;5090487;28;20072;-69
2022/09/22 03:37:46;;;;;;;2.17;1.40;;;;;;;13.41;100.00;100120.91;5072595;28;20058;-70
2022/09/22 03:40:11;;;;;;;1.70;1.20;;;;;;;13.29;100.00;100129.81;5090425;28;20028;-70
2022/09/22 03:42:39;;;;;;;1.50;1.20;;;;;;;13.54;100.00;100152.75;5091031;28;20024;-70
2022/09/22 03:45:04;;;;;;;2.88;1.23;;;;;;;13.47;100.00;100157.25;5090213;28;20092;-71
2022/09/22 03:47:30;;;;;;;1.70;1.38;;;;;;;13.31;100.00;100150.22;5072255;28;20024;-70
2022/09/22 03:49:55;;;;;;;1.52;1.33;;;;;;;13.23;100.00;100142.00;5090526;28;20024;-70
2022/09/22 03:52:21;;;;;;;1.67;1.30;;;;;;;13.25;100.00;100158.09;5090586;28;20173;-69
2022/09/22 03:54:47;;;;;;;1.83;1.40;;;;;;;13.14;100.00;100111.69;5090138;28;20028;-70
2022/09/22 03:57:13;;;;;;;2.53;1.40;;;;;;;13.44;100.00;100147.16;5090312;28;20027;-72
2022/09/22 03:59:38;;;;;;;1.83;1.27;;;;;;;13.47;100.00;100146.22;5072336;28;20032;-70
2022/09/22 04:02:04;;;;;;;1.40;1.10;;;;;;;13.84;100.00;100133.72;5090536;28;20081;-72
2022/09/22 04:04:29;;;;;;;1.25;1.15;;;;;;;13.05;100.00;100066.94;5090756;28;20063;-70
2022/09/22 04:06:55;;;;;;;1.67;1.25;;;;;;;13.20;100.00;100132.72;5090249;28;20114;-71
2022/09/22 04:09:20;;;;;;;2.58;1.30;;;;;;;13.23;100.00;100132.59;5090260;28;20115;-72
2022/09/22 04:11:46;;;;;;;3.80;1.33;;;;;;;12.91;100.00;100081.88;5090232;28;20027;-71
2022/09/22 04:14:11;;;;;;;2.58;1.30;;;;;;;12.88;100.00;100079.41;5089960;28;20324;-72
2022/09/22 04:16:37;;;;;;;1.50;1.20;;;;;;;13.10;100.00;100144.16;5089798;28;20043;-71
2022/09/22 04:19:03;;;;;;;1.33;1.23;;;;;;;12.98;100.00;100149.66;5072140;28;20024;-72
2022/09/22 04:21:30;;;;;;;2.50;1.38;;;;;;;13.26;100.00;100155.50;5072269;28;20042;-71
2022/09/22 04:23:55;;;;;;;1.73;1.40;;;;;;;12.71;100.00;100053.69;5090110;28;20490;-69
2022/09/22 04:26:21;;;;;;;1.40;1.17;;;;;;;13.32;100.00;100149.31;5090574;28;20039;-70
2022/09/22 04:28:50;;;;;;;4.00;1.20;;;;;;;13.41;100.00;100139.59;5090504;28;20035;-70
2022/09/22 04:31:15;;;;;;;2.03;1.30;;;;;;;13.85;100.00;100090.19;5072448;28;20123;-69
2022/09/22 04:33:41;;;;;;;1.90;1.50;;;;;;;14.36;100.00;100150.41;5093744;28;20200;-69
2022/09/22 04:36:06;;;;;;;3.58;1.50;;;;;;;13.15;100.00;100087.84;5094161;28;20172;-70
2022/09/22 04:38:32;;;;;;;2.22;1.50;;;;;;;13.32;100.00;100077.81;5093796;28;20063;-70
2022/09/22 04:40:57;;;;;;;4.75;2.00;;;;;;;13.26;100.00;100078.88;5075272;28;20456;-71
2022/09/22 04:43:23;;;;;;;3.05;1.58;;;;;;;12.91;100.00;100104.84;5075423;28;20119;-70
2022/09/22 04:45:48;;;;;;;3.05;1.48;;;;;;;13.29;100.00;100103.47;5093826;28;20115;-70
2022/09/22 04:48:15;;;;;;;1.85;1.60;;;;;;;13.22;100.00;100140.31;5074766;28;20039;-70
2022/09/22 04:50:40;;;;;;;4.35;1.52;;;;;;;13.57;100.00;100152.63;5093590;28;20089;-69
2022/09/22 04:53:06;;;;;;;2.63;1.70;;;;;;;13.20;100.00;100112.31;5093453;28;20103;-71
2022/09/22 04:55:32;;;;;;;2.58;1.80;;;;;;;12.87;100.00;100065.00;5093798;28;20024;-69
2022/09/22 04:57:58;;;;;;;3.95;1.80;;;;;;;13.36;100.00;100118.50;5093363;28;20464;-69
2022/09/22 05:00:26;;;;;;;2.72;1.55;;;;;;;13.05;100.00;100148.59;5093037;28;20057;-73
2022/09/22 05:02:52;;;;;;;3.28;1.90;;;;;;;13.34;100.00;100171.38;5086518;28;20501;-69
2022/09/22 05:05:18;;;;;;;5.50;1.65;;;;;;;13.45;100.00;100174.34;5095228;28;20192;-70
2022/09/22 05:07:50;;;;;;;2.53;1.40;;;;;;;13.24;100.00;100118.97;5105233;28;20039;-70
2022/09/22 05:10:17;;;;;;;1.50;1.20;;;;;;;13.84;100.00;100190.75;5113250;28;20031;-72
2022/09/22 05:12:43;;;;;;;2.65;1.70;;;;;;;13.74;100.00;100151.13;5095118;28;20039;-71
2022/09/22 05:15:11;;;;;;;2.55;1.38;;;;;;;13.82;100.00;100110.78;5113141;28;20504;-70
2022/09/22 05:17:37;;;;;;;1.65;1.40;;;;;;;13.79;100.00;100100.66;5095424;28;20031;-70
2022/09/22 05:20:06;;;;;;;3.45;1.80;;;;;;;14.49;100.00;100131.09;5094975;28;20050;-70
2022/09/22 05:22:32;;;;;;;3.63;1.50;;;;;;;14.99;100.00;100169.91;5113362;28;20126;-70
2022/09/22 05:24:57;;;;;;;2.13;1.70;;;;;;;15.16;100.00;100175.97;5113274;28;20072;-71
2022/09/22 05:27:23;;;;;;;3.03;1.25;;;;;;;15.63;100.00;100178.19;5113338;28;20031;-70
2022/09/22 05:29:52;;;;;;;2.13;1.42;;;;;;;15.73;100.00;100174.31;5103987;28;20467;-71
2022/09/22 05:32:18;;;;;;;5.72;2.17;;;;;;;15.73;100.00;100164.88;5094985;28;20032;-71
2022/09/22 05:34:43;;;;;;;2.30;1.55;;;;;;;15.19;100.00;100136.59;5111826;28;20507;-70
2022/09/22 05:37:09;;;;;;;1.75;1.35;;;;;;;14.08;100.00;100131.91;5113039;28;20027;-73
2022/09/22 05:39:34;;;;;;;1.45;1.20;;;;;;;14.55;100.00;100141.06;5106827;28;20028;-72
2022/09/22 05:42:00;;;;;;;3.22;1.30;;;;;;;14.45;100.00;100130.41;5092321;28;20036;-71
2022/09/22 05:44:25;;;;;;;1.40;1.20;;;;;;;14.60;100.00;100186.03;5103126;28;20035;-69
2022/09/22 05:46:51;;;;;;;2.90;1.48;;;;;;;14.71;100.00;100183.88;5098559;28;20031;-69
2022/09/22 05:49:16;;;;;;;12.10;2.33;;;;;;;15.17;100.00;100169.94;5099586;28;20410;-70
2022/09/22 05:51:41;;;;;;;1.95;1.42;;;;;;;15.53;100.00;100176.03;5093574;28;20119;-69
2022/09/22 05:54:08;;;;;;;5.20;1.40;;;;;;;15.11;100.00;100131.81;5073436;28;20032;-68
2022/09/22 05:56:34;;;;;;;10.38;1.92;;;;;;;14.87;100.00;100117.53;5081659;28;20047;-67
2022/09/22 05:58:59;;;;;;;6.50;1.60;;;;;;;14.95;100.00;100173.50;5111328;28;20229;-69
2022/09/22 06:01:25;;;;;;;2.08;1.17;;;;;;;14.76;100.00;100142.72;5106256;28;20342;-67
2022/09/22 06:03:50;;;;;;;8.85;1.40;;;;;;;14.86;100.00;100171.31;5100723;28;20426;-70
2022/09/22 06:06:15;;;;;;;5.65;1.70;;;;;;;14.55;100.00;100103.53;5091703;28;20162;-69
2022/09/22 06:08:41;;;;;;;2.63;1.40;;;;;;;14.51;100.00;100106.28;5091276;28;20040;-71
2022/09/22 06:11:06;;;;;;;2.78;1.27;;;;;;;14.74;100.00;100126.59;5073227;28;20028;-69
2022/09/22 06:13:32;;;;;;;2.58;1.40;;;;;;;14.75;100.00;100118.03;5091057;28;20032;-68
2022/09/22 06:16:01;;;;;;;5.90;2.20;;;;;;;14.95;100.00;100176.06;5073267;28;20027;-70
2022/09/22 06:18:27;;;;;;;8.25;1.30;;;;;;;15.02;100.00;100177.44;5090952;28;20097;-67
2022/09/22 06:20:56;;;;;;;8.18;1.67;;;;;;;14.63;100.00;100082.72;5090867;28;20016;-71
2022/09/22 06:23:22;;;;;;;2.15;1.50;;;;;;;14.35;100.00;100079.66;5091286;28;20060;-69
2022/09/22 06:25:47;;;;;;;3.45;1.40;;;;;;;14.84;100.00;100191.03;5103324;28;20544;-68
2022/09/22 06:28:13;;;;;;;1.42;1.23;;;;;;;14.51;100.00;100129.31;5091084;28;20032;-68
2022/09/22 06:30:39;;;;;;;1.45;1.15;;;;;;;14.88;100.00;100149.03;5112141;28;20031;-69
2022/09/22 06:33:06;;;;;;;1.45;1.20;;;;;;;15.05;100.00;100211.47;5111052;28;20180;-70
2022/09/22 06:35:38;;;;;;;1.85;1.20;;;;;;;14.56;100.00;100176.00;5100455;28;20064;-69
2022/09/22 06:38:08;;;;;;;2.60;2.00;;;;;;;14.99;100.00;100227.09;5091084;28;20028;-68
2022/09/22 06:40:36;;;;;;;7.45;3.83;;;;;;;14.68;100.00;100121.75;5072502;28;20032;-68
2022/09/22 06:43:11;;;;;;;3.08;2.10;;;;;;;15.06;100.00;100167.03;5072966;28;20063;-70
2022/09/22 06:45:38;;;;;;;2.30;1.30;;;;;;;15.01;100.00;100216.78;5072767;28;20477;-70
2022/09/22 06:48:04;;;;;;;2.78;2.40;;;;;;;15.85;100.00;100212.19;5090674;28;20032;-67
2022/09/22 06:50:32;;;;;;;2.25;1.30;;;;;;;15.74;100.00;100132.38;5072366;28;20031;-68
2022/09/22 06:53:03;;;;;;;2.80;1.17;;;;;;;16.90;100.00;100229.38;5090619;28;20460;-69
2022/09/22 06:55:29;;;;;;;4.60;1.20;;;;;;;16.30;100.00;100117.69;5090659;28;20032;-68
2022/09/22 06:57:57;;;;;;;3.55;1.15;;;;;;;16.47;100.00;100166.44;5072481;28;20036;-68
2022/09/22 07:00:30;;;;;;;2.95;1.55;;;;;;;16.86;100.00;100132.84;5072823;28;20082;-67
2022/09/22 07:03:16;;;;;;;2.67;1.63;;;;;;;17.93;100.00;100223.09;5072631;28;20032;-68
2022/09/22 07:05:52;;;;;;;2.35;1.52;;;;;;;18.36;100.00;100218.97;5086144;28;20534;-72
2022/09/22 07:08:19;;;;;;;2.55;1.58;;;;;;;17.95;100.00;100200.69;5092643;28;20080;-68
2022/09/22 07:10:44;;;;;;;3.80;1.27;;;;;;;18.97;100.00;100219.75;5111190;28;20028;-67
2022/09/22 07:13:10;;;;;;;3.35;1.30;;;;;;;17.87;100.00;100212.28;5111175;28;20118;-67
2022/09/22 07:15:35;;;;;;;3.00;1.40;;;;;;;18.19;100.00;100230.22;5109888;28;20840;-68
2022/09/22 07:18:02;;;;;;;1.83;1.25;;;;;;;17.49;100.00;100214.31;5108894;28;20035;-67
2022/09/22 07:20:27;;;;;;;4.03;1.10;;;;;;;17.95;100.00;100205.00;5110324;28;20066;-70
2022/09/22 07:22:59;;;;;;;2.72;1.30;;;;;;;18.36;100.00;100203.53;5110643;28;20484;-67
2022/09/22 07:25:28;;;;;;;6.05;2.00;;;;;;;18.58;100.00;100210.91;5111354;28;20366;-68
2022/09/22 07:27:56;;;;;;;4.65;1.33;;;;;;;18.53;100.00;100171.72;5110408;28;20034;-68
2022/09/22 07:30:25;;;;;;;2.40;1.70;;;;;;;18.91;100.00;100165.16;5092379;28;20056;-70
2022/09/22 07:32:50;;;;;;;2.20;1.60;;;;;;;18.77;96.41;100207.19;5072130;28;20047;-68
2022/09/22 07:35:16;;;;;;;2.40;1.70;;;;;;;18.66;100.00;100213.91;5089890;28;20052;-71
2022/09/22 07:37:41;;;;;;;2.25;1.70;;;;;;;17.49;100.00;100174.97;5090696;28;20031;-68
2022/09/22 07:40:07;;;;;;;3.10;1.38;;;;;;;17.98;100.00;100231.41;5090458;28;20024;-67
2022/09/22 07:42:33;;;;;;;3.40;1.40;;;;;;;18.35;100.00;100189.00;5090039;28;20039;-68
2022/09/22 07:45:14;;;;;;;3.17;1.30;;;;;;;18.24;98.80;100164.78;5088808;28;20414;-68
2022/09/22 07:50:26;;;;;;;8.88;1.85;;;;;;;19.59;88.79;100182.47;5090101;28;20073;-68
2022/09/22 07:52:52;;;;;;;1.83;1.30;;;;;;;18.92;93.52;100190.84;5071986;28;20039;-69
2022/09/22 07:55:21;;;;;;;3.35;1.77;;;;;;;18.78;97.16;100244.91;5089753;28;20028;-69
2022/09/22 07:57:57;;;;;;;1.33;1.17;;;;;;;17.69;100.00;100213.31;5071537;28;20031;-67
2022/09/22 08:00:31;;;;;;;2.30;1.40;;;;;;;18.40;100.00;100237.69;5089799;28;20039;-70
2022/09/22 08:02:57;;;;;;;1.92;1.35;;;;;;;18.01;94.68;100190.06;5089841;28;20043;-70
2022/09/22 08:05:25;;;;;;;2.95;1.40;;;;;;;18.17;99.88;100232.03;5089796;28;20036;-71
2022/09/22 08:07:51;;;;;;;3.20;1.35;;;;;;;17.75;100.00;100252.38;5092699;28;20055;-68
2022/09/22 08:10:18;;;;;;;4.75;1.67;;;;;;;17.47;100.00;100202.47;5094773;28;20519;-75
2022/09/22 08:12:43;;;;;;;2.38;1.20;;;;;;;17.79;100.00;100255.59;5094500;28;20047;-69
2022/09/22 08:15:10;;;;;;;1.88;0.82;;;;;;;16.94;100.00;100198.31;5094208;28;20470;-67
2022/09/22 08:17:38;;;;;;;1.73;1.20;;;;;;;17.85;100.00;100239.84;5094443;28;20139;-69
2022/09/22 08:20:05;;;;;;;2.10;1.20;;;;;;;17.83;96.77;100185.91;5075799;28;20036;-69
2022/09/22 08:22:31;;;;;;;5.20;1.50;;;;;;;17.67;100.00;100200.50;5093563;28;20039;-70
2022/09/22 08:24:57;;;;;;;2.92;1.13;;;;;;;18.93;90.70;100201.97;5093857;28;20818;-71
2022/09/22 08:27:22;;;;;;;2.15;1.50;;;;;;;19.61;81.38;100218.53;5075733;28;20089;-71
2022/09/22 08:29:47;;;;;;;3.00;1.00;;;;;;;18.47;83.67;100210.69;5093659;28;20037;-77
2022/09/22 08:32:16;;;;;;;1.00;0.90;;;;;;;18.85;85.36;100233.34;5075572;28;20028;-70
2022/09/22 08:34:42;;;;;;;2.05;1.00;;;;;;;18.32;87.58;100190.94;5093765;28;20135;-72
2022/09/22 08:37:09;;;;;;;1.42;1.02;;;;;;;18.32;92.85;100239.84;5093663;28;20478;-71
2022/09/22 08:39:35;;;;;;;2.22;0.90;;;;;;;17.70;99.41;100171.22;5093436;28;20024;-71
2022/09/22 08:42:19;;;;;;;3.53;1.77;;;;;;;18.15;97.89;100184.13;5075774;28;20456;-71
2022/09/22 08:45:01;;;;;;;5.88;3.03;;;;;;;17.84;97.74;100225.34;5093868;28;20044;-70
2022/09/22 08:54:05;;;;;;;1.23;1.10;;;;;;;20.09;75.73;100212.88;5093399;28;20069;-69
2022/09/22 08:56:45;;;;;;;3.58;1.30;;;;;;;20.70;70.65;100171.84;5093320;28;20039;-69
2022/09/22 08:59:22;;;;;;;2.55;1.15;;;;;;;21.51;72.70;100216.34;5093420;28;20051;-72
2022/09/22 09:02:05;;;;;;;1.67;0.93;;;;;;;21.52;70.96;100212.81;5093234;28;20043;-70
2022/09/22 09:04:49;;;;;;;1.48;0.93;;;;;;;20.40;66.66;100220.34;5092910;28;20035;-69
2022/09/22 09:07:22;;;;;;;1.60;1.30;;;;;;;19.01;77.04;100221.22;5093586;28;20028;-70
2022/09/22 09:09:47;;;;;;;1.13;1.00;;;;;;;20.17;79.03;100207.22;5093556;28;20028;-71
2022/09/22 09:12:33;;;;;;;1.50;0.85;;;;;;;20.78;74.24;100212.66;5093687;28;20567;-70
2022/09/22 09:15:07;;;;;;;0.80;0.80;;;;;;;20.42;67.00;100217.69;5092710;28;20028;-68
2022/09/22 09:17:36;;;;;;;2.05;0.90;;;;;;;20.92;67.89;100147.16;5092414;28;20077;-69
2022/09/22 09:21:00;;;;;;;1.27;1.08;;;;;;;19.91;71.81;100202.88;5074515;28;20055;-69
2022/09/22 09:23:46;;;;;;;1.33;0.98;;;;;;;19.79;66.26;100182.06;5074673;28;20115;-69
2022/09/22 09:26:14;;;;;;;6.25;1.25;;;;;;;20.47;62.34;100115.69;5092930;28;20128;-68
2022/09/22 09:28:46;;;;;;;1.45;0.98;;;;;;;20.11;60.77;100199.84;5092718;28;20035;-68
2022/09/22 09:31:27;;;;;;;1.00;0.90;;;;;;;19.97;67.51;100205.06;5074738;28;20122;-71
2022/09/22 09:34:04;;;;;;;2.70;1.15;;;;;;;19.37;71.89;100156.34;5092629;28;20099;-73
2022/09/22 09:36:54;;;;;;;2.30;1.00;;;;;;;18.62;77.31;100197.75;5074337;28;20036;-72
2022/09/22 09:39:31;;;;;;;1.88;1.00;;;;;;;17.85;82.19;100144.66;5092690;28;20032;-70
2022/09/22 09:41:59;;;;;;;1.50;1.02;;;;;;;18.40;80.27;100184.41;5092588;28;20406;-71
2022/09/22 09:44:27;;;;;;;1.35;0.90;;;;;;;18.68;75.39;100140.75;5074351;28;20482;-72
2022/09/22 09:47:14;;;;;;;1.92;1.20;;;;;;;18.69;81.67;100149.31;5092267;28;20120;-80
2022/09/22 09:49:39;;;;;;;2.20;1.02;;;;;;;20.27;65.74;100191.06;5092421;28;20035;-72
2022/09/22 09:52:10;;;;;;;1.45;0.93;;;;;;;20.73;64.53;100169.06;5092485;28;20028;-75
2022/09/22 09:54:36;;;;;;;1.70;1.00;;;;;;;21.20;60.07;100183.13;5091957;28;20486;-72
2022/09/22 09:57:10;;;;;;;3.80;1.30;;;;;;;20.12;63.24;100137.81;5092584;28;20058;-72
2022/09/22 10:02:49;;;;;;;1.83;1.35;;;;;;;20.64;59.72;100194.66;5092344;28;20038;-72
2022/09/22 10:05:15;;;;;;;1.10;1.00;;;;;;;19.35;70.74;100194.28;5086470;28;20176;-72
2022/09/22 10:07:47;;;;;;;1.17;1.05;;;;;;;18.92;72.06;100131.56;5092288;28;20115;-72
2022/09/22 10:10:27;;;;;;;3.58;1.10;;;;;;;20.15;65.55;100197.00;5074291;28;20035;-72
2022/09/22 10:12:59;;;;;;;1.15;1.05;;;;;;;21.75;58.46;100182.75;5092295;28;20024;-75
2022/09/22 10:15:25;;;;;;;;;;;;;;;20.13;61.68;100198.00;5074057;28;20032;-73
2022/09/22 10:17:51;;;;;;;2.88;1.25;;;;;;;19.18;67.10;100135.16;5092488;28;20050;-73
2022/09/22 10:20:21;;;;;;;2.35;1.27;;;;;;;20.25;63.69;100192.94;5091390;28;20038;-73
2022/09/22 10:22:48;;;;;;;3.42;1.48;;;;;;;20.83;62.92;100177.03;5090408;28;20063;-72
2022/09/22 10:25:23;;;;;;;2.50;0.90;;;;;;;20.98;55.13;100151.88;5091678;28;20024;-74
2022/09/22 10:28:08;;;;;;;0.98;0.90;;;;;;;21.72;55.26;100178.59;5091250;28;20036;-73
2022/09/22 10:30:37;;;;;;;1.90;1.02;;;;;;;20.92;52.43;100088.50;5090913;28;20595;-72
2022/09/22 10:33:04;;;;;;;1.20;0.93;;;;;;;22.06;50.25;100190.84;5091443;28;20024;-72
2022/09/22 10:35:32;;;;;;;1.05;0.90;;;;;;;21.52;49.89;100176.56;5073190;28;20040;-72
2022/09/22 10:38:08;;;;;;;1.30;0.90;;;;;;;21.71;48.82;100127.75;5073680;28;20147;-74
2022/09/22 10:40:38;;;;;;;0.80;0.80;;;;;;;21.38;49.85;100133.56;5073097;28;20020;-74
2022/09/22 10:43:10;;;;;;;1.65;1.15;;;;;;;22.02;48.83;100173.88;5073337;28;20035;-72
2022/09/22 10:45:46;;;;;;;1.30;1.02;;;;;;;20.81;50.17;100134.09;5091522;28;20470;-73
2022/09/22 10:48:44;;;;;;;1.83;1.10;;;;;;;22.43;47.57;100176.03;5091697;28;20180;-74
2022/09/22 10:51:43;;;;;;;1.30;1.20;;;;;;;21.55;48.93;100172.00;5091699;28;20466;-73
2022/09/22 10:54:26;;;;;;;1.80;0.90;;;;;;;21.05;49.86;100114.38;4731392;28;10000265;-73
2022/09/22 10:57:07;;;;;;;1.13;0.90;;;;;;;21.26;51.01;100162.03;5109619;28;20038;-75
2022/09/22 10:59:59;;;;;;;5.47;1.05;;;;;;;20.46;53.40;100170.06;5109059;28;20037;-74
2022/09/22 11:02:46;;;;;;;3.65;1.02;;;;;;;20.28;56.46;100182.38;5109707;28;20055;-75
2022/09/22 11:12:15;;;;;;;2.20;1.10;;;;;;;21.36;52.13;100173.41;5109100;28;20042;-75
2022/09/22 11:14:15;;;;;;;1.10;1.00;;;;;;;19.82;56.17;100130.28;5109478;28;20085;-75
2022/09/22 11:16:46;;;;;;;0.90;0.90;;;;;;;19.74;53.65;100168.63;5109352;28;20050;-86
2022/09/22 11:19:30;;;;;;;1.85;0.98;;;;;;;19.68;55.12;100173.34;5109834;28;20027;-77
2022/09/22 11:22:14;;;;;;;1.45;1.10;;;;;;;20.81;52.10;100162.53;5109055;28;20123;-75
2022/09/22 11:24:52;;;;;;;1.00;0.90;;;;;;;21.05;50.00;100148.81;5110308;28;20042;-76
2022/09/22 11:27:23;;;;;;;2.40;1.00;;;;;;;20.32;51.91;100157.22;5109060;28;20036;-74
2022/09/22 11:30:09;;;;;;;1.00;0.90;;;;;;;19.34;53.56;100117.03;5090369;28;20539;-73
2022/09/22 11:33:17;;;;;;;1.88;0.90;;;;;;;19.75;56.40;100164.28;5109299;28;20036;-76
2022/09/22 11:35:49;;;;;;;3.13;1.00;;;;;;;18.84;58.05;100096.84;5073775;28;20090;-75
2022/09/22 11:39:01;;;;;;;2.65;0.82;;;;;;;21.10;50.33;100156.25;5108897;28;20038;-79
2022/09/22 11:41:50;;;;;;;1.80;0.90;;;;;;;21.11;50.98;100156.16;5111797;28;20028;-79
2022/09/22 11:44:40;;;;;;;2.40;0.95;;;;;;;21.14;52.05;100163.69;5094695;28;20108;-74
2022/09/22 11:47:31;;;;;;;1.25;1.00;;;;;;;21.28;51.79;100150.66;5097002;28;20496;-74
2022/09/22 11:50:30;;;;;;;2.45;0.70;;;;;;;21.67;49.07;100156.56;5115651;28;20046;-74
2022/09/22 11:53:23;;;;;;;1.25;0.80;;;;;;;20.71;49.31;100159.75;5115243;28;20108;-75
2022/09/22 11:56:07;;;;;;;1.65;0.60;;;;;;;20.84;48.10;100155.41;5112000;28;20140;-74
2022/09/22 11:58:38;;;;;;;1.58;1.00;;;;;;;21.85;47.40;100142.34;5094776;28;20090;-82
2022/09/22 12:01:13;;;;;;;5.45;1.60;;;;;;;22.23;45.65;100137.78;5076838;28;20111;-74